Main page
METAR-TAF:

METAR-TAF

Airports :

Zenata – Messali El Hadj Airport

Tlemcen, Algeria

latitude: 35-01N, longitude: 001-28W, elevation: 247 m

Current weather observation

The report was made 38 minutes ago, at 02:30 UTC
Wind 4 kt from the West
Temperature 16°C
Humidity 68%
Pressure 1022 hPa
Visibility 10 km or more
Scattered clouds at a height of 2600 ft

METAR: DAON 260230Z 26004KT 9999 SCT026 16/10 Q1022

Time: 04:08 (03:08 UTC)

Forecast

The report was made 4 hours and 8 minutes ago, at 23:00 UTC
Forecast valid from 26 at 00 UTC to 26 at 24 UTC
Wind 10 kt from the West/Northwest
Visibility 10 km or more
Scattered clouds at a height of 2600 ft
Temporary
from 26 at 00 UTC to 26 at 06 UTC
Wind 2 kt from variable directions
Broken clouds at a height of 2000 ft
Becoming
from 26 at 12 UTC to 26 at 14 UTC
Wind 12 kt from the North
Visibility 10 km or more
no clouds below 1500 m and no cumulonimbus

TAF: DAON 252300Z 2600/2624 30010KT 9999 SCT026 TEMPO 2600/2606 VRB02KT BKN020 BECMG 2612/2614 36012KT CAVOK

Weather observations and forecasts of more than 4000 airports (METAR and TAF reports).

The available stations are represented by yellow and red dots on the map.

Hover mouse over dot to see the name of the station.

Then click to see weather observations and forecasts.

To change the map : click on the green buttons with a black cross to zoom in, on the green button with a dash to zoom out, or on the green arrows for adjacent maps.


METAR-TAF: